Terminal Aerodrome Forecast
Issued by NWS

Home | Current Version | Previous Version | Text Only | Print | Product List | Glossary On
Versions: 1 2 3 4 5 6 7 8 9 10 11 12 13
600
FTUS44 KTSA 040537
TAFXNA
TAF
KXNA 040537Z 0406/0506 11005KT 3SM -RA BR OVC007
      TEMPO 0408/0412 1SM -RA BR OVC004
     FM041200 14003KT 1SM -DZ BR OVC004
     FM041800 32004KT 4SM BR OVC007
     FM042000 32006KT P6SM OVC015
     FM050000 VRB03KT P6SM SCT015=

USA.gov is the U.S. government's official web portal to all federal, state and local government web resources and services.